Time;durP1;ratioP1;P1;durP2;ratioP2;P2;SDS_P1;SDS_P2;PMS_P1;PMS_P2;Temp;Humidity;BMP_temperature;BMP_pressure;BME280_temperature;BME280_humidity;BME280_pressure;Samples;Min_cycle;Max_cycle;Signal;HPM_P1;HPM_P2
2023/03/01 00:02:19;;;;;;;;;;;;;;;5.40;60.31;102175.19;1923431;75;20100;-47
2023/03/01 00:04:47;;;;;;;;;;;;;;;5.41;60.43;102172.59;1921335;75;20176;-49
2023/03/01 00:07:15;;;;;;;;;;;;;;;5.41;60.35;102174.34;1923639;75;20113;-49
2023/03/01 00:09:45;;;;;;;;;;;;;;;5.38;60.30;102171.25;1923664;75;20146;-47
2023/03/01 00:12:12;;;;;;;;;;;;;;;5.42;60.21;102173.45;1923916;74;20384;-47
2023/03/01 00:14:39;;;;;;;;;;;;;;;5.39;60.23;102162.56;1919855;75;20097;-46
2023/03/01 00:17:07;;;;;;;;;;;;;;;5.41;60.16;102168.67;1923560;75;20187;-50
2023/03/01 00:19:35;;;;;;;;;;;;;;;5.44;60.01;102171.75;1923619;75;20116;-45
2023/03/01 00:22:03;;;;;;;;;;;;;;;5.48;59.87;102167.38;1923657;74;20116;-55
2023/03/01 00:24:31;;;;;;;;;;;;;;;5.51;59.80;102168.27;1923341;74;20184;-56
2023/03/01 00:26:58;;;;;;;;;;;;;;;5.52;59.80;102160.89;1923608;75;20147;-52
2023/03/01 00:29:27;;;;;;;;;;;;;;;5.54;59.74;102154.38;1916033;75;20155;-54
2023/03/01 00:31:55;;;;;;;;;;;;;;;5.54;59.73;102158.29;1923689;73;20378;-54
2023/03/01 00:34:23;;;;;;;;;;;;;;;5.52;59.75;102153.50;1923165;75;20112;-47
2023/03/01 00:36:51;;;;;;;;;;;;;;;5.51;59.65;102149.13;1923451;75;20397;-48
2023/03/01 00:39:18;;;;;;;;;;;;;;;5.53;59.64;102150.00;1931461;73;20103;-53
2023/03/01 00:41:46;;;;;;;;;;;;;;;5.55;59.60;102153.48;1944682;73;20197;-54
2023/03/01 00:44:14;;;;;;;;;;;;;;;5.58;59.58;102153.52;1965763;73;20198;-54
2023/03/01 00:46:42;;;;;;;;;;;;;;;5.59;59.49;102160.50;1965926;73;20104;-55
2023/03/01 00:49:09;;;;;;;;;;;;;;;5.59;59.42;102161.36;1965814;73;20100;-53
2023/03/01 00:51:39;;;;;;;;;;;;;;;5.62;59.32;102136.97;1965804;73;20150;-54
2023/03/01 00:54:07;;;;;;;;;;;;;;;5.63;59.29;102135.25;1965786;73;20171;-48
2023/03/01 00:56:35;;;;;;;;;;;;;;;5.61;59.29;102145.70;1959994;73;20107;-55
2023/03/01 00:59:02;;;;;;;;;;;;;;;5.58;59.21;102136.53;1958376;73;20114;-55
2023/03/01 01:01:31;;;;;;;;;;;;;;;5.57;59.15;102133.05;1924979;73;20144;-54
2023/03/01 01:04:00;;;;;;;;;;;;;;;5.53;59.05;102124.77;1926477;74;20145;-50
2023/03/01 01:06:29;;;;;;;;;;;;;;;5.48;59.13;102116.44;1926471;74;20156;-53
2023/03/01 01:08:57;;;;;;;;;;;;;;;5.43;59.18;102112.96;1926454;74;20489;-55
2023/03/01 01:11:25;;;;;;;;;;;;;;;5.39;59.18;102111.63;1951671;73;20115;-55
2023/03/01 01:13:53;;;;;;;;;;;;;;;5.35;59.16;102111.63;1940438;73;20119;-51
2023/03/01 01:16:22;;;;;;;;;;;;;;;5.31;59.24;102101.59;1927844;73;20106;-48
2023/03/01 01:18:50;;;;;;;;;;;;;;;5.31;59.24;102112.05;1926701;74;20377;-48
2023/03/01 01:21:19;;;;;;;;;;;;;;;5.22;59.56;102127.23;1926474;74;20106;-50
2023/03/01 01:23:47;;;;;;;;;;;;;;;5.19;59.48;102135.47;1926522;74;20419;-52
2023/03/01 01:26:20;;;;;;;;;;;;;;;5.20;59.39;102128.06;1960621;73;20134;-52
2023/03/01 01:28:48;;;;;;;;;;;;;;;5.15;59.27;102101.08;1972332;73;20386;-53
2023/03/01 01:31:16;;;;;;;;;;;;;;;5.09;59.22;102098.41;1972250;73;20123;-51
2023/03/01 01:33:44;;;;;;;;;;;;;;;5.02;59.12;102104.91;1972226;73;20116;-50
2023/03/01 01:36:11;;;;;;;;;;;;;;;4.95;59.14;102093.99;1972124;73;20115;-49
2023/03/01 01:38:39;;;;;;;;;;;;;;;4.88;59.22;102105.70;1944193;73;20157;-47
2023/03/01 01:41:07;;;;;;;;;;;;;;;4.81;59.34;102111.30;1943834;73;20171;-51
2023/03/01 01:43:36;;;;;;;;;;;;;;;4.75;59.45;102102.99;1950570;73;20108;-48
2023/03/01 01:46:11;;;;;;;;;;;;;;;4.73;59.47;102103.86;1950764;74;20158;-48
2023/03/01 01:48:46;;;;;;;;;;;;;;;4.69;59.47;102088.61;1950632;74;20120;-48
2023/03/01 01:51:15;;;;;;;;;;;;;;;4.61;59.49;102110.73;1931093;73;20377;-48
2023/03/01 01:53:44;;;;;;;;;;;;;;;4.54;59.60;102120.68;1919484;75;20107;-48
2023/03/01 01:56:13;;;;;;;;;;;;;;;4.52;59.59;102117.19;1919434;75;20114;-48
2023/03/01 01:58:43;;;;;;;;;;;;;;;4.50;59.61;102120.22;1919460;75;20384;-48
2023/03/01 02:01:12;;;;;;;;;;;;;;;4.48;59.63;102114.09;1919535;75;20142;-48
2023/03/01 02:03:41;;;;;;;;;;;;;;;4.47;59.65;102107.14;1940129;73;20412;-47
2023/03/01 02:06:23;;;;;;;;;;;;;;;4.44;59.74;102108.41;1950585;74;20139;-48
2023/03/01 02:08:52;;;;;;;;;;;;;;;4.41;59.88;102105.80;1949761;73;20147;-50
2023/03/01 02:11:21;;;;;;;;;;;;;;;4.39;60.08;102095.75;1950560;74;20108;-48
2023/03/01 02:13:50;;;;;;;;;;;;;;;4.38;60.05;102099.23;1950915;73;20116;-49
2023/03/01 02:16:18;;;;;;;;;;;;;;;4.37;59.93;102113.12;1950734;74;20125;-51
2023/03/01 02:18:46;;;;;;;;;;;;;;;4.35;59.87;102110.94;1950556;74;20124;-48
2023/03/01 02:21:32;;;;;;;;;;;;;;;4.32;60.03;102097.45;1950560;74;20156;-48
2023/03/01 02:24:01;;;;;;;;;;;;;;;4.27;60.15;102097.84;1950517;74;20112;-51
2023/03/01 02:26:43;;;;;;;;;;;;;;;4.22;60.36;102102.13;1950682;73;20117;-58
2023/03/01 02:29:11;;;;;;;;;;;;;;;4.17;60.67;102091.68;1950573;74;20112;-57
2023/03/01 02:31:44;;;;;;;;;;;;;;;4.08;60.98;102088.98;1950519;74;20097;-55
2023/03/01 02:34:20;;;;;;;;;;;;;;;4.02;61.08;102099.33;1950637;74;20116;-52
2023/03/01 02:36:52;;;;;;;;;;;;;;;3.88;61.37;102082.71;1949386;73;20156;-52
2023/03/01 02:39:24;;;;;;;;;;;;;;;3.78;61.65;102089.12;1950576;73;20104;-51
2023/03/01 02:41:54;;;;;;;;;;;;;;;3.77;61.72;102097.79;1943975;73;20117;-52
2023/03/01 02:44:23;;;;;;;;;;;;;;;3.76;61.52;102070.00;1930159;74;20115;-53
2023/03/01 02:46:55;;;;;;;;;;;;;;;3.75;61.82;102078.66;1915569;75;20432;-51
2023/03/01 02:49:24;;;;;;;;;;;;;;;3.75;61.53;102089.09;1915691;75;20185;-49
2023/03/01 02:52:10;;;;;;;;;;;;;;;3.71;61.58;102072.98;1938664;73;20197;-52
2023/03/01 02:54:39;;;;;;;;;;;;;;;3.67;61.76;102069.88;1947781;73;20198;-55
2023/03/01 02:57:07;;;;;;;;;;;;;;;3.68;61.56;102073.80;1942274;74;20114;-55
2023/03/01 02:59:40;;;;;;;;;;;;;;;3.68;61.43;102068.59;1943536;74;20135;-47
2023/03/01 03:02:08;;;;;;;;;;;;;;;3.69;61.45;102049.95;1943879;74;20136;-52
2023/03/01 03:04:35;;;;;;;;;;;;;;;3.65;61.73;102044.24;1943663;74;20133;-47
2023/03/01 03:07:04;;;;;;;;;;;;;;;3.64;61.55;102056.41;1943576;74;20120;-49
2023/03/01 03:09:32;;;;;;;;;;;;;;;3.65;61.40;102046.44;1943599;74;20143;-49
2023/03/01 03:12:00;;;;;;;;;;;;;;;3.66;61.31;102040.80;1943654;73;20159;-47
2023/03/01 03:14:27;;;;;;;;;;;;;;;3.65;61.28;102042.94;1917633;75;20189;-47
2023/03/01 03:16:55;;;;;;;;;;;;;;;3.62;61.63;102040.33;1917458;75;20110;-47
2023/03/01 03:19:23;;;;;;;;;;;;;;;3.52;62.13;102024.14;1917478;75;20114;-51
2023/03/01 03:21:51;;;;;;;;;;;;;;;3.36;62.43;102023.98;1917460;75;20106;-47
2023/03/01 03:24:18;;;;;;;;;;;;;;;3.27;63.19;102034.29;1939993;73;20143;-50
2023/03/01 03:26:46;;;;;;;;;;;;;;;3.23;62.92;102046.83;1943511;74;20117;-53
2023/03/01 03:29:14;;;;;;;;;;;;;;;3.22;62.73;102046.38;1943639;74;20108;-54
2023/03/01 03:31:42;;;;;;;;;;;;;;;3.24;62.62;102044.66;1943639;74;20351;-54
2023/03/01 03:34:17;;;;;;;;;;;;;;;3.27;62.75;102057.72;1944370;74;20108;-54
2023/03/01 03:36:39;;;;;;;;;;;;;;;3.29;62.44;102050.80;1945206;74;20147;-54
2023/03/01 03:39:06;;;;;;;;;;;;;;;3.31;62.33;102049.08;1945212;74;20100;-54
2023/03/01 03:41:35;;;;;;;;;;;;;;;3.33;62.19;102048.67;1944208;72;20120;-54
2023/03/01 03:44:03;;;;;;;;;;;;;;;3.36;62.17;102038.73;1942624;73;20117;-54
2023/03/01 03:46:31;;;;;;;;;;;;;;;3.36;62.10;102038.73;1942665;74;20125;-54
2023/03/01 03:48:59;;;;;;;;;;;;;;;3.37;62.02;102036.13;1945061;74;20116;-52
2023/03/01 03:51:27;;;;;;;;;;;;;;;3.39;61.98;102040.92;1951561;74;20159;-53
2023/03/01 03:53:54;;;;;;;;;;;;;;;3.41;61.91;102045.75;1949274;74;20180;-51
2023/03/01 03:56:25;;;;;;;;;;;;;;;3.42;61.83;102029.25;1943991;74;20116;-54
2023/03/01 03:58:51;;;;;;;;;;;;;;;3.43;61.96;102024.50;1944083;73;20092;-55
2023/03/01 04:01:19;;;;;;;;;;;;;;;3.46;61.94;102045.78;1944038;74;20101;-55
2023/03/01 04:03:47;;;;;;;;;;;;;;;3.44;62.03;102049.66;1944049;74;20147;-55
2023/03/01 04:06:15;;;;;;;;;;;;;;;3.43;61.97;102034.92;1954160;73;20096;-55
2023/03/01 04:08:42;;;;;;;;;;;;;;;3.42;62.01;102036.20;1955312;73;20113;-53
2023/03/01 04:11:28;;;;;;;;;;;;;;;3.35;62.38;102043.05;1955222;73;20112;-45
2023/03/01 04:13:58;;;;;;;;;;;;;;;3.29;62.45;102027.37;1955316;73;20108;-44
2023/03/01 04:16:26;;;;;;;;;;;;;;;3.28;62.57;102030.41;1944055;73;20143;-45
2023/03/01 04:18:54;;;;;;;;;;;;;;;3.33;62.40;102029.14;1942609;74;20113;-45
2023/03/01 04:21:22;;;;;;;;;;;;;;;3.35;62.29;102023.52;1943488;74;20116;-45
2023/03/01 04:23:52;;;;;;;;;;;;;;;3.38;62.46;101995.36;1944139;74;20113;-48
2023/03/01 04:26:20;;;;;;;;;;;;;;;3.37;62.33;101980.15;1944117;74;20176;-44
2023/03/01 04:28:49;;;;;;;;;;;;;;;3.37;62.65;102013.13;1944023;74;20171;-48
2023/03/01 04:31:20;;;;;;;;;;;;;;;3.34;62.59;102023.09;1944080;74;20360;-48
2023/03/01 04:33:48;;;;;;;;;;;;;;;3.35;62.59;102020.92;1944074;74;20100;-52
2023/03/01 04:36:17;;;;;;;;;;;;;;;3.32;62.73;102015.70;1946660;74;20116;-55
2023/03/01 04:38:48;;;;;;;;;;;;;;;3.29;62.96;102029.97;1951509;73;20116;-55
2023/03/01 04:41:17;;;;;;;;;;;;;;;3.31;62.75;102034.77;1952045;72;20140;-45
2023/03/01 04:43:45;;;;;;;;;;;;;;;3.34;62.55;102029.61;1965222;73;20382;-44
2023/03/01 04:46:13;;;;;;;;;;;;;;;3.35;62.50;102032.64;1965789;72;20107;-44
2023/03/01 04:48:42;;;;;;;;;;;;;;;3.38;62.41;102039.19;1965789;72;20117;-45
2023/03/01 04:51:13;;;;;;;;;;;;;;;3.41;62.30;102037.04;1965850;73;20116;-48
2023/03/01 04:53:41;;;;;;;;;;;;;;;3.42;62.37;102027.08;1965698;73;20120;-48
2023/03/01 04:56:08;;;;;;;;;;;;;;;3.45;62.31;102034.50;1964533;73;20437;-54
2023/03/01 04:58:36;;;;;;;;;;;;;;;3.45;62.46;102036.23;1964784;72;20179;-48
2023/03/01 05:01:15;;;;;;;;;;;;;;;3.46;62.58;102027.55;1963494;73;20136;-47
2023/03/01 05:03:35;;;;;;;;;;;;;;;3.43;62.56;102027.11;1961555;73;20100;-47
2023/03/01 05:06:02;;;;;;;;;;;;;;;3.38;62.58;102050.05;1963514;73;20116;-48
2023/03/01 05:08:34;;;;;;;;;;;;;;;3.38;62.48;102053.52;1968959;73;20146;-52
2023/03/01 05:10:59;;;;;;;;;;;;;;;3.43;62.56;102042.73;1969340;72;20116;-44
2023/03/01 05:13:28;;;;;;;;;;;;;;;3.43;62.64;102045.33;1965192;73;20138;-44
2023/03/01 05:15:58;;;;;;;;;;;;;;;3.43;62.70;102030.11;1965351;73;20362;-44
2023/03/01 05:18:26;;;;;;;;;;;;;;;3.44;62.67;102030.14;1965266;73;20373;-45
2023/03/01 05:20:56;;;;;;;;;;;;;;;3.44;62.75;102037.08;1965820;73;20112;-47
2023/03/01 05:23:23;;;;;;;;;;;;;;;3.46;62.62;102046.64;1965862;72;20392;-45
2023/03/01 05:25:52;;;;;;;;;;;;;;;3.50;62.57;102025.86;1965845;73;20146;-48
2023/03/01 05:28:20;;;;;;;;;;;;;;;3.56;62.47;102016.80;1959707;73;20145;-45
2023/03/01 05:30:48;;;;;;;;;;;;;;;3.62;62.35;102021.66;1929063;74;20166;-45
2023/03/01 05:33:17;;;;;;;;;;;;;;;3.69;62.28;102022.60;1929309;74;20142;-46
2023/03/01 05:35:45;;;;;;;;;;;;;;;3.75;62.20;102023.95;1929068;74;20118;-49
2023/03/01 05:38:13;;;;;;;;;;;;;;;3.80;62.19;102023.58;1929803;73;20177;-46
2023/03/01 05:40:45;;;;;;;;;;;;;;;3.86;62.20;102033.18;1962635;73;20146;-51
2023/03/01 05:43:14;;;;;;;;;;;;;;;3.94;62.19;102024.13;1967570;73;20390;-56
2023/03/01 05:45:42;;;;;;;;;;;;;;;4.03;62.14;102025.06;1972081;73;20398;-46
2023/03/01 05:48:11;;;;;;;;;;;;;;;4.14;62.04;102032.12;1972276;73;20408;-47
2023/03/01 05:50:40;;;;;;;;;;;;;;;4.22;61.89;102031.33;1966358;71;20171;-47
2023/03/01 05:53:09;;;;;;;;;;;;;;;4.30;61.73;102009.63;1965294;73;20157;-45
2023/03/01 05:55:38;;;;;;;;;;;;;;;4.36;61.64;102018.82;1963524;73;20120;-47
2023/03/01 05:58:08;;;;;;;;;;;;;;;4.39;61.65;102016.21;1966083;72;20364;-52
2023/03/01 06:00:35;;;;;;;;;;;;;;;4.45;61.65;101995.41;1969814;72;20363;-48
2023/03/01 06:03:03;;;;;;;;;;;;;;;4.55;61.62;102018.06;1972133;73;20143;-48
2023/03/01 06:05:31;;;;;;;;;;;;;;;4.67;61.52;102026.83;1972182;73;20147;-48
2023/03/01 06:08:00;;;;;;;;;;;;;;;4.76;61.49;102017.78;1972144;73;20155;-48
2023/03/01 06:10:28;;;;;;;;;;;;;;;4.81;61.45;102027.78;1967782;73;20153;-48
2023/03/01 06:12:56;;;;;;;;;;;;;;;4.88;61.56;102038.70;1965167;73;20100;-47
2023/03/01 06:15:25;;;;;;;;;;;;;;;4.84;61.74;102036.50;1965147;73;20116;-47
2023/03/01 06:17:55;;;;;;;;;;;;;;;4.86;61.71;102032.60;1965161;73;20421;-48
2023/03/01 06:20:24;;;;;;;;;;;;;;;4.98;61.63;102036.59;1963645;73;20112;-48
2023/03/01 06:22:52;;;;;;;;;;;;;;;5.18;61.42;102035.80;1960942;73;20100;-48
2023/03/01 06:25:21;;;;;;;;;;;;;;;5.28;61.27;102017.13;1960805;73;20116;-52
2023/03/01 06:27:50;;;;;;;;;;;;;;;5.32;61.14;102013.66;1960778;73;20116;-53
2023/03/01 06:30:19;;;;;;;;;;;;;;;5.28;61.22;102010.16;1960671;73;20096;-49
2023/03/01 06:32:46;;;;;;;;;;;;;;;5.19;61.25;102003.61;1960903;73;20371;-56
2023/03/01 06:35:17;;;;;;;;;;;;;;;5.14;61.29;102001.41;1960820;73;20112;-55
2023/03/01 06:37:45;;;;;;;;;;;;;;;5.09;61.43;101995.28;1960854;73;20112;-43
2023/03/01 06:40:13;;;;;;;;;;;;;;;5.11;61.29;102009.21;1960911;73;20371;-44
2023/03/01 06:42:42;;;;;;;;;;;;;;;5.17;61.17;101994.90;1966879;72;21461;-48
2023/03/01 06:45:11;;;;;;;;;;;;;;;5.28;61.01;101978.83;1942712;73;20478;-45
2023/03/01 06:47:40;;;;;;;;;;;;;;;5.34;60.89;102000.16;1940600;74;20124;-46
2023/03/01 06:50:08;;;;;;;;;;;;;;;5.40;60.78;102002.78;1942643;74;20117;-46
2023/03/01 06:52:36;;;;;;;;;;;;;;;5.44;60.63;102003.25;1943700;74;20142;-47
2023/03/01 06:55:04;;;;;;;;;;;;;;;5.41;60.64;102010.63;1943908;74;20104;-46
2023/03/01 06:57:32;;;;;;;;;;;;;;;5.51;60.60;102005.42;1949575;73;20104;-46
2023/03/01 07:00:00;;;;;;;;;;;;;;;5.82;60.43;101987.19;1950954;74;20151;-48
2023/03/01 07:02:28;;;;;;;;;;;;;;;6.12;60.17;101987.23;1905637;74;20115;-49
2023/03/01 07:04:56;;;;;;;;;;;;;;;6.23;59.83;101994.19;1904531;75;20149;-55
2023/03/01 07:07:24;;;;;;;;;;;;;;;6.26;59.65;101987.66;1904502;75;20115;-55
2023/03/01 07:09:53;;;;;;;;;;;;;;;6.27;59.66;101985.45;1916918;74;20154;-48
2023/03/01 07:12:20;;;;;;;;;;;;;;;6.28;59.53;101983.28;1926996;74;20726;-48
2023/03/01 07:14:48;;;;;;;;;;;;;;;6.29;59.50;101977.16;1944064;74;20105;-47
2023/03/01 07:17:16;;;;;;;;;;;;;;;6.33;59.41;101971.08;1944068;74;20117;-49
2023/03/01 07:19:44;;;;;;;;;;;;;;;6.34;59.24;101969.77;1944045;74;20113;-54
2023/03/01 07:22:12;;;;;;;;;;;;;;;6.40;59.09;101968.89;1944046;74;20393;-54
2023/03/01 07:24:41;;;;;;;;;;;;;;;6.32;59.05;101971.94;1944146;74;20139;-54
2023/03/01 07:27:09;;;;;;;;;;;;;;;6.36;59.04;101969.74;1944117;74;20163;-46
2023/03/01 07:29:37;;;;;;;;;;;;;;;6.40;58.71;101973.22;1944051;74;20101;-47
2023/03/01 07:32:05;;;;;;;;;;;;;;;6.55;58.59;101960.98;1944081;74;20116;-47
2023/03/01 07:34:33;;;;;;;;;;;;;;;6.72;58.11;101971.84;1943281;74;20105;-46
2023/03/01 07:37:01;;;;;;;;;;;;;;;6.86;57.48;101979.22;1943967;74;20117;-46
2023/03/01 07:39:29;;;;;;;;;;;;;;;6.99;57.67;101973.91;1944063;74;20140;-47
2023/03/01 07:41:57;;;;;;;;;;;;;;;7.26;57.60;101975.09;1944069;74;20151;-55
2023/03/01 07:44:25;;;;;;;;;;;;;;;7.79;56.18;101962.97;1943819;72;20186;-47
2023/03/01 07:46:56;;;;;;;;;;;;;;;7.81;56.01;101971.69;1944028;74;20119;-47
2023/03/01 07:49:22;;;;;;;;;;;;;;;7.73;56.23;101956.88;1944042;74;20113;-42
2023/03/01 07:51:49;;;;;;;;;;;;;;;7.66;56.17;101955.18;1940777;74;20190;-49
2023/03/01 07:54:17;;;;;;;;;;;;;;;7.73;56.26;101948.16;1947851;74;20112;-52
2023/03/01 07:56:46;;;;;;;;;;;;;;;7.84;56.22;101953.28;1951611;74;20119;-54
2023/03/01 07:59:15;;;;;;;;;;;;;;;7.74;56.07;101959.91;1951591;74;20113;-52
2023/03/01 08:01:42;;;;;;;;;;;;;;;7.58;56.13;101951.76;1951622;73;20157;-52
2023/03/01 08:04:10;;;;;;;;;;;;;;;7.58;56.32;101951.76;1950220;73;20116;-51
2023/03/01 08:06:38;;;;;;;;;;;;;;;7.68;56.16;101958.66;1951602;74;20143;-52
2023/03/01 08:09:06;;;;;;;;;;;;;;;7.87;55.88;101962.00;1951530;73;20101;-47
2023/03/01 08:11:34;;;;;;;;;;;;;;;8.23;55.66;101965.64;1951544;74;20120;-45
2023/03/01 08:14:01;;;;;;;;;;;;;;;8.55;55.10;101973.66;1949578;74;20104;-54
2023/03/01 08:16:29;;;;;;;;;;;;;;;8.61;54.83;101971.84;1951501;74;20156;-53
2023/03/01 08:19:01;;;;;;;;;;;;;;;8.63;55.00;101964.81;1951547;74;20157;-52
2023/03/01 08:21:27;;;;;;;;;;;;;;;8.69;55.00;101967.81;1950922;74;20116;-53
2023/03/01 08:23:54;;;;;;;;;;;;;;;8.85;54.63;101970.69;1949700;73;20147;-46
2023/03/01 08:26:22;;;;;;;;;;;;;;;8.85;54.06;101975.05;1943997;74;20113;-47
2023/03/01 08:28:50;;;;;;;;;;;;;;;8.74;53.98;101963.80;1943810;74;20113;-46
2023/03/01 08:31:19;;;;;;;;;;;;;;;8.76;53.81;101955.04;1943993;74;20195;-47
2023/03/01 08:33:54;;;;;;;;;;;;;;;8.76;54.23;101964.65;1943955;74;20147;-47
2023/03/01 08:36:20;;;;;;;;;;;;;;;8.80;54.23;101963.30;1943867;73;20206;-46
2023/03/01 08:38:48;;;;;;;;;;;;;;;8.92;53.86;101963.58;1944007;74;20104;-47
2023/03/01 08:41:16;;;;;;;;;;;;;;;9.05;53.17;101954.64;1944111;74;20113;-48
2023/03/01 08:43:44;;;;;;;;;;;;;;;9.00;52.83;101947.70;1944437;73;20399;-47
2023/03/01 08:46:12;;;;;;;;;;;;;;;9.18;52.28;101947.91;1961003;73;20153;-47
2023/03/01 08:48:42;;;;;;;;;;;;;;;9.26;52.75;101944.75;1960903;73;20429;-47
2023/03/01 08:51:11;;;;;;;;;;;;;;;9.39;52.57;101942.81;1960862;73;20163;-47
2023/03/01 08:53:38;;;;;;;;;;;;;;;9.58;52.14;101927.16;1961055;73;20108;-47
2023/03/01 08:56:06;;;;;;;;;;;;;;;9.82;51.44;101919.31;1930908;74;20114;-47
2023/03/01 08:58:34;;;;;;;;;;;;;;;9.85;51.42;101914.47;1930995;74;20145;-47
2023/03/01 09:01:04;;;;;;;;;;;;;;;9.82;51.47;101908.79;1931035;74;20113;-47
2023/03/01 09:03:31;;;;;;;;;;;;;;;9.89;51.70;101908.25;1931050;74;20114;-47
2023/03/01 09:06:03;;;;;;;;;;;;;;;10.18;50.45;101895.88;1951148;72;20159;-46
2023/03/01 09:08:32;;;;;;;;;;;;;;;10.39;50.12;101905.15;1957767;73;20409;-47
2023/03/01 09:11:01;;;;;;;;;;;;;;;10.66;49.99;101896.72;1957853;73;20178;-47
2023/03/01 09:13:30;;;;;;;;;;;;;;;10.73;49.82;101893.05;1957855;73;20096;-44
2023/03/01 09:15:58;;;;;;;;;;;;;;;10.72;49.33;101889.56;1960183;73;20120;-45
2023/03/01 09:18:26;;;;;;;;;;;;;;;10.61;49.29;101881.02;1960837;73;20100;-47
2023/03/01 09:20:57;;;;;;;;;;;;;;;10.47;49.24;101872.08;1960836;73;20116;-46
2023/03/01 09:23:24;;;;;;;;;;;;;;;10.42;49.44;101865.60;1960872;73;20396;-54
2023/03/01 09:25:53;;;;;;;;;;;;;;;10.46;49.71;101865.52;1963739;73;20146;-54
2023/03/01 09:28:23;;;;;;;;;;;;;;;10.49;49.78;101853.62;1972146;73;20119;-48
2023/03/01 09:30:50;;;;;;;;;;;;;;;10.39;49.69;101859.07;1972435;73;20151;-47
2023/03/01 09:33:18;;;;;;;;;;;;;;;10.22;49.52;101854.12;1968401;73;20112;-45
2023/03/01 09:35:46;;;;;;;;;;;;;;;10.18;49.50;101858.14;1957659;73;20112;-45
2023/03/01 09:38:14;;;;;;;;;;;;;;;9.92;48.83;101852.06;1960966;73;20112;-43
2023/03/01 09:40:46;;;;;;;;;;;;;;;9.80;48.98;101846.59;1965131;73;20150;-44
2023/03/01 09:43:32;;;;;;;;;;;;;;;9.79;48.74;101840.47;1965256;72;20154;-53
2023/03/01 09:46:02;;;;;;;;;;;;;;;9.74;48.69;101839.68;1965181;72;20171;-51
2023/03/01 09:48:31;;;;;;;;;;;;;;;9.73;48.65;101839.70;1965115;73;20198;-51
2023/03/01 09:51:00;;;;;;;;;;;;;;;9.69;48.35;101834.09;1933012;73;20377;-53
2023/03/01 09:53:29;;;;;;;;;;;;;;;9.83;48.12;101828.10;1916912;75;20122;-49
2023/03/01 09:55:58;;;;;;;;;;;;;;;10.05;48.13;101828.14;1916518;75;20119;-46
2023/03/01 09:58:28;;;;;;;;;;;;;;;10.45;47.58;101824.30;1915691;75;20102;-49
2023/03/01 10:00:57;;;;;;;;;;;;;;;10.91;46.73;101822.83;1916367;75;20204;-47
2023/03/01 10:03:38;;;;;;;;;;;;;;;11.53;45.86;101821.34;1916991;75;20381;-47
2023/03/01 10:06:07;;;;;;;;;;;;;;;11.61;45.77;101820.69;1916249;75;20115;-48
2023/03/01 10:08:38;;;;;;;;;;;;;;;11.84;45.38;101828.44;1916383;74;20118;-50
2023/03/01 10:11:07;;;;;;;;;;;;;;;12.54;44.10;101818.98;1916824;75;20153;-47
2023/03/01 10:13:36;;;;;;;;;;;;;;;13.56;43.28;101807.86;1915354;75;20114;-47
2023/03/01 10:16:22;;;;;;;;;;;;;;;14.27;42.46;101812.34;1916989;75;20145;-48
2023/03/01 10:18:52;;;;;;;;;;;;;;;14.52;42.17;101806.10;1920882;73;20166;-49
2023/03/01 10:21:20;;;;;;;;;;;;;;;14.42;41.76;101810.02;1955042;73;20112;-49
2023/03/01 10:23:49;;;;;;;;;;;;;;;14.41;41.86;101799.89;1979355;72;20114;-49
2023/03/01 10:26:18;;;;;;;;;;;;;;;14.62;41.75;101794.23;1958584;72;20114;-48
2023/03/01 10:28:53;;;;;;;;;;;;;;;14.55;41.92;101794.06;1960893;72;20114;-48
2023/03/01 10:31:22;;;;;;;;;;;;;;;14.32;42.30;101794.94;1955228;72;20163;-44
2023/03/01 10:33:54;;;;;;;;;;;;;;;14.49;42.10;101793.81;1955170;73;20194;-53
2023/03/01 10:36:19;;;;;;;;;;;;;;;14.70;41.07;101790.42;1954906;73;20096;-50
2023/03/01 10:38:53;;;;;;;;;;;;;;;14.83;42.26;101789.89;1955186;73;20159;-44
2023/03/01 10:41:25;;;;;;;;;;;;;;;14.54;42.31;101794.98;1955201;73;20386;-47
2023/03/01 10:43:55;;;;;;;;;;;;;;;14.08;42.62;101788.77;1952003;73;20366;-47
2023/03/01 10:46:27;;;;;;;;;;;;;;;13.55;43.26;101787.59;1944828;73;20120;-44
2023/03/01 10:49:09;;;;;;;;;;;;;;;13.09;43.67;101790.83;1945087;74;20351;-44
2023/03/01 10:51:39;;;;;;;;;;;;;;;12.74;43.59;101786.24;1945002;74;20187;-44
2023/03/01 10:54:08;;;;;;;;;;;;;;;12.39;44.12;101794.36;1944944;74;20394;-45
2023/03/01 10:56:37;;;;;;;;;;;;;;;12.12;44.70;101787.67;1943875;74;20143;-47
2023/03/01 10:59:06;;;;;;;;;;;;;;;12.01;44.46;101791.05;1943207;74;20112;-47
2023/03/01 11:01:35;;;;;;;;;;;;;;;11.85;43.98;101792.77;1944882;74;20116;-46
2023/03/01 11:04:07;;;;;;;;;;;;;;;11.75;44.14;101788.21;1944994;74;20101;-48
2023/03/01 11:06:35;;;;;;;;;;;;;;;11.75;44.29;101788.21;1944856;74;20112;-45
2023/03/01 11:09:17;;;;;;;;;;;;;;;11.77;44.42;101784.22;1946052;73;20112;-47
2023/03/01 11:11:45;;;;;;;;;;;;;;;11.94;43.36;101778.50;1953664;73;20375;-48
2023/03/01 11:14:17;;;;;;;;;;;;;;;11.94;43.92;101775.39;1953816;73;20143;-48
2023/03/01 11:16:46;;;;;;;;;;;;;;;11.72;43.57;101783.47;1953794;73;20397;-47
2023/03/01 11:19:19;;;;;;;;;;;;;;;11.49;44.12;101782.74;1953885;73;20354;-48
2023/03/01 11:21:51;;;;;;;;;;;;;;;11.37;44.15;101776.03;1954927;73;20112;-47
2023/03/01 11:24:19;;;;;;;;;;;;;;;11.70;43.98;101776.91;1948580;73;20143;-49
2023/03/01 11:26:48;;;;;;;;;;;;;;;11.89;43.41;101778.58;1955277;73;20100;-47
2023/03/01 11:29:23;;;;;;;;;;;;;;;12.04;43.27;101771.17;1955010;72;20108;-47
2023/03/01 11:31:52;;;;;;;;;;;;;;;12.63;42.73;101765.87;1954847;73;20327;-46
2023/03/01 11:34:21;;;;;;;;;;;;;;;13.54;41.76;101767.33;1955114;73;20100;-48
2023/03/01 11:36:52;;;;;;;;;;;;;;;14.23;41.03;101763.50;1953620;72;20186;-46
2023/03/01 11:39:21;;;;;;;;;;;;;;;14.70;40.61;101763.48;1954750;72;20359;-48
2023/03/01 11:41:52;;;;;;;;;;;;;;;14.91;40.49;101749.80;1954259;73;20139;-49
2023/03/01 11:44:21;;;;;;;;;;;;;;;15.02;40.36;101750.21;1955230;73;20375;-47
2023/03/01 11:47:02;;;;;;;;;;;;;;;14.75;40.42;101754.00;1953733;73;20124;-47
2023/03/01 11:49:34;;;;;;;;;;;;;;;14.32;39.46;101756.52;1955145;72;20472;-47
2023/03/01 11:52:06;;;;;;;;;;;;;;;13.56;40.18;101758.44;1955039;73;20109;-47
2023/03/01 11:54:39;;;;;;;;;;;;;;;12.79;40.21;101756.16;1955094;73;20116;-46
2023/03/01 11:57:14;;;;;;;;;;;;;;;12.20;40.50;101757.94;1953921;73;20163;-43
2023/03/01 11:59:55;;;;;;;;;;;;;;;11.70;41.04;101755.80;1978676;72;20149;-42
2023/03/01 12:02:41;;;;;;;;;;;;;;;11.39;41.53;101757.08;1932071;73;20139;-44
2023/03/01 12:05:16;;;;;;;;;;;;;;;11.19;41.25;101751.88;1955298;73;20387;-41
2023/03/01 12:08:01;;;;;;;;;;;;;;;10.99;41.74;101748.85;1955126;73;20096;-42
2023/03/01 12:10:30;;;;;;;;;;;;;;;10.93;42.14;101745.06;1955176;73;20116;-42
2023/03/01 12:13:05;;;;;;;;;;;;;;;10.84;41.89;101738.23;1954894;72;20175;-47
2023/03/01 12:15:41;;;;;;;;;;;;;;;10.78;42.08;101732.66;1955238;73;20146;-47
2023/03/01 12:18:16;;;;;;;;;;;;;;;10.68;41.96;101732.49;1953607;72;20142;-55
2023/03/01 12:20:51;;;;;;;;;;;;;;;10.60;41.68;101729.16;1940814;73;20155;-53
2023/03/01 12:23:37;;;;;;;;;;;;;;;10.53;42.12;101722.29;1947930;73;20143;-48
2023/03/01 12:26:13;;;;;;;;;;;;;;;10.64;41.43;101716.31;1965153;73;20112;-48
2023/03/01 12:28:45;;;;;;;;;;;;;;;10.64;40.70;101715.00;1965088;72;20163;-47
2023/03/01 12:31:14;;;;;;;;;;;;;;;10.58;40.70;101713.84;1964114;73;20120;-47
2023/03/01 12:34:02;;;;;;;;;;;;;;;10.59;37.23;101715.59;1965077;73;20636;-46
2023/03/01 12:36:49;;;;;;;;;;;;;;;10.57;39.51;101717.39;1941039;73;20154;-50
2023/03/01 12:39:21;;;;;;;;;;;;;;;10.58;39.82;101710.75;1914020;74;20219;-48
2023/03/01 12:41:51;;;;;;;;;;;;;;;10.57;39.77;101706.40;1950870;72;20121;-56
2023/03/01 12:44:23;;;;;;;;;;;;;;;10.47;39.44;101717.17;1955183;73;20120;-57
2023/03/01 12:47:11;;;;;;;;;;;;;;;10.34;38.87;101719.22;1940010;73;20164;-54
2023/03/01 12:49:49;;;;;;;;;;;;;;;10.23;34.82;101720.73;1911205;75;20359;-47
2023/03/01 12:52:18;;;;;;;;;;;;;;;9.93;35.58;101721.81;1943145;73;20112;-42
2023/03/01 12:54:48;;;;;;;;;;;;;;;9.68;37.69;101722.73;1951583;74;20116;-44
2023/03/01 12:57:23;;;;;;;;;;;;;;;9.62;38.51;101722.41;1951618;74;20347;-42